sensor_id;sensor_type;location;lat;lon;timestamp;P1;durP1;ratioP1;P2;durP2;ratioP2
17414;SDS011;8825;48.086;16.426;2024-01-10T00:00:42;119.75;;;110.42;;
17414;SDS011;8825;48.086;16.426;2024-01-10T00:03:10;116.20;;;107.15;;
17414;SDS011;8825;48.086;16.426;2024-01-10T00:05:37;121.67;;;112.35;;
17414;SDS011;8825;48.086;16.426;2024-01-10T00:08:05;103.40;;;94.67;;
17414;SDS011;8825;48.086;16.426;2024-01-10T00:10:33;124.70;;;115.70;;
17414;SDS011;8825;48.086;16.426;2024-01-10T00:15:48;115.57;;;106.15;;
17414;SDS011;8825;48.086;16.426;2024-01-10T00:21:03;119.60;;;110.30;;
17414;SDS011;8825;48.086;16.426;2024-01-10T00:23:31;120.05;;;110.83;;
17414;SDS011;8825;48.086;16.426;2024-01-10T00:25:58;122.78;;;113.30;;
17414;SDS011;8825;48.086;16.426;2024-01-10T00:28:26;105.70;;;97.02;;
17414;SDS011;8825;48.086;16.426;2024-01-10T00:30:54;135.85;;;125.82;;
17414;SDS011;8825;48.086;16.426;2024-01-10T00:33:21;128.68;;;118.50;;
17414;SDS011;8825;48.086;16.426;2024-01-10T00:35:49;124.53;;;115.08;;
17414;SDS011;8825;48.086;16.426;2024-01-10T00:38:16;126.00;;;116.50;;
17414;SDS011;8825;48.086;16.426;2024-01-10T00:40:44;122.58;;;112.90;;
17414;SDS011;8825;48.086;16.426;2024-01-10T00:43:11;137.90;;;127.70;;
17414;SDS011;8825;48.086;16.426;2024-01-10T00:45:39;134.47;;;124.55;;
17414;SDS011;8825;48.086;16.426;2024-01-10T00:48:07;129.85;;;120.20;;
17414;SDS011;8825;48.086;16.426;2024-01-10T00:50:34;121.55;;;111.85;;
17414;SDS011;8825;48.086;16.426;2024-01-10T00:53:02;135.50;;;125.50;;
17414;SDS011;8825;48.086;16.426;2024-01-10T00:55:29;154.53;;;143.22;;
17414;SDS011;8825;48.086;16.426;2024-01-10T00:57:57;117.72;;;108.63;;
17414;SDS011;8825;48.086;16.426;2024-01-10T01:00:24;123.95;;;114.28;;
17414;SDS011;8825;48.086;16.426;2024-01-10T01:02:52;130.15;;;120.28;;
17414;SDS011;8825;48.086;16.426;2024-01-10T01:05:20;99.83;;;91.37;;
17414;SDS011;8825;48.086;16.426;2024-01-10T01:07:47;96.95;;;88.30;;
17414;SDS011;8825;48.086;16.426;2024-01-10T01:10:15;103.38;;;94.77;;
17414;SDS011;8825;48.086;16.426;2024-01-10T01:12:43;107.45;;;98.45;;
17414;SDS011;8825;48.086;16.426;2024-01-10T01:15:10;100.87;;;92.00;;
17414;SDS011;8825;48.086;16.426;2024-01-10T01:17:38;97.75;;;88.60;;
17414;SDS011;8825;48.086;16.426;2024-01-10T01:20:06;95.12;;;86.02;;
17414;SDS011;8825;48.086;16.426;2024-01-10T01:22:34;94.47;;;85.77;;
17414;SDS011;8825;48.086;16.426;2024-01-10T01:25:02;113.22;;;103.80;;
17414;SDS011;8825;48.086;16.426;2024-01-10T01:27:30;107.63;;;98.07;;
17414;SDS011;8825;48.086;16.426;2024-01-10T01:29:57;87.20;;;78.85;;
17414;SDS011;8825;48.086;16.426;2024-01-10T01:32:25;130.55;;;120.22;;
17414;SDS011;8825;48.086;16.426;2024-01-10T01:34:52;92.65;;;83.82;;
17414;SDS011;8825;48.086;16.426;2024-01-10T01:37:20;137.47;;;127.07;;
17414;SDS011;8825;48.086;16.426;2024-01-10T01:39:47;101.35;;;92.35;;
17414;SDS011;8825;48.086;16.426;2024-01-10T01:42:15;127.90;;;117.37;;
17414;SDS011;8825;48.086;16.426;2024-01-10T01:44:43;153.85;;;141.92;;
17414;SDS011;8825;48.086;16.426;2024-01-10T01:47:10;185.60;;;172.95;;
17414;SDS011;8825;48.086;16.426;2024-01-10T01:49:38;119.75;;;110.05;;
17414;SDS011;8825;48.086;16.426;2024-01-10T01:52:07;169.40;;;157.27;;
17414;SDS011;8825;48.086;16.426;2024-01-10T01:54:35;180.78;;;167.95;;
17414;SDS011;8825;48.086;16.426;2024-01-10T01:57:03;151.07;;;139.57;;
17414;SDS011;8825;48.086;16.426;2024-01-10T01:59:31;160.25;;;148.65;;
17414;SDS011;8825;48.086;16.426;2024-01-10T02:01:59;143.43;;;132.27;;
17414;SDS011;8825;48.086;16.426;2024-01-10T02:04:30;114.45;;;104.58;;
17414;SDS011;8825;48.086;16.426;2024-01-10T02:06:58;142.37;;;131.30;;
17414;SDS011;8825;48.086;16.426;2024-01-10T02:09:25;110.35;;;100.55;;
17414;SDS011;8825;48.086;16.426;2024-01-10T02:11:53;137.25;;;126.60;;
17414;SDS011;8825;48.086;16.426;2024-01-10T02:14:21;108.15;;;97.95;;
17414;SDS011;8825;48.086;16.426;2024-01-10T02:16:49;113.37;;;103.72;;
17414;SDS011;8825;48.086;16.426;2024-01-10T02:19:20;104.90;;;94.80;;
17414;SDS011;8825;48.086;16.426;2024-01-10T02:21:49;101.85;;;92.85;;
17414;SDS011;8825;48.086;16.426;2024-01-10T02:24:17;98.85;;;89.80;;
17414;SDS011;8825;48.086;16.426;2024-01-10T02:26:44;116.03;;;105.90;;
17414;SDS011;8825;48.086;16.426;2024-01-10T02:29:12;114.62;;;104.35;;
17414;SDS011;8825;48.086;16.426;2024-01-10T02:31:40;109.52;;;99.50;;
17414;SDS011;8825;48.086;16.426;2024-01-10T02:34:07;108.00;;;97.62;;
17414;SDS011;8825;48.086;16.426;2024-01-10T02:36:35;103.62;;;93.52;;
17414;SDS011;8825;48.086;16.426;2024-01-10T02:39:02;108.63;;;98.30;;
17414;SDS011;8825;48.086;16.426;2024-01-10T02:41:30;114.70;;;104.43;;
17414;SDS011;8825;48.086;16.426;2024-01-10T02:43:57;114.40;;;104.43;;
17414;SDS011;8825;48.086;16.426;2024-01-10T02:46:25;114.55;;;104.07;;
17414;SDS011;8825;48.086;16.426;2024-01-10T02:48:54;108.15;;;98.27;;
17414;SDS011;8825;48.086;16.426;2024-01-10T02:51:23;108.35;;;97.95;;
17414;SDS011;8825;48.086;16.426;2024-01-10T02:53:53;112.60;;;102.07;;
17414;SDS011;8825;48.086;16.426;2024-01-10T02:56:20;105.03;;;94.85;;
17414;SDS011;8825;48.086;16.426;2024-01-10T02:58:48;117.05;;;106.43;;
17414;SDS011;8825;48.086;16.426;2024-01-10T03:01:15;102.25;;;92.72;;
17414;SDS011;8825;48.086;16.426;2024-01-10T03:03:43;114.28;;;103.97;;
17414;SDS011;8825;48.086;16.426;2024-01-10T03:06:10;113.15;;;102.50;;
17414;SDS011;8825;48.086;16.426;2024-01-10T03:08:38;107.43;;;97.27;;
17414;SDS011;8825;48.086;16.426;2024-01-10T03:11:05;111.10;;;100.82;;
17414;SDS011;8825;48.086;16.426;2024-01-10T03:13:33;118.20;;;107.22;;
17414;SDS011;8825;48.086;16.426;2024-01-10T03:16:00;115.15;;;104.03;;
17414;SDS011;8825;48.086;16.426;2024-01-10T03:18:28;114.88;;;104.12;;
17414;SDS011;8825;48.086;16.426;2024-01-10T03:20:55;127.60;;;116.03;;
17414;SDS011;8825;48.086;16.426;2024-01-10T03:23:23;115.45;;;104.67;;
17414;SDS011;8825;48.086;16.426;2024-01-10T03:25:50;117.95;;;107.22;;
17414;SDS011;8825;48.086;16.426;2024-01-10T03:28:18;122.55;;;111.92;;
17414;SDS011;8825;48.086;16.426;2024-01-10T03:30:45;110.83;;;99.92;;
17414;SDS011;8825;48.086;16.426;2024-01-10T03:33:13;125.40;;;114.20;;
17414;SDS011;8825;48.086;16.426;2024-01-10T03:35:42;121.82;;;110.35;;
17414;SDS011;8825;48.086;16.426;2024-01-10T03:38:10;117.97;;;107.58;;
17414;SDS011;8825;48.086;16.426;2024-01-10T03:40:37;134.80;;;122.50;;
17414;SDS011;8825;48.086;16.426;2024-01-10T03:43:05;127.47;;;116.15;;
17414;SDS011;8825;48.086;16.426;2024-01-10T03:45:32;121.33;;;110.03;;
17414;SDS011;8825;48.086;16.426;2024-01-10T03:48:00;114.25;;;103.10;;
17414;SDS011;8825;48.086;16.426;2024-01-10T03:50:27;117.40;;;107.15;;
17414;SDS011;8825;48.086;16.426;2024-01-10T03:52:55;121.53;;;110.37;;
17414;SDS011;8825;48.086;16.426;2024-01-10T03:55:22;118.72;;;107.70;;
17414;SDS011;8825;48.086;16.426;2024-01-10T03:57:50;111.25;;;100.38;;
17414;SDS011;8825;48.086;16.426;2024-01-10T04:00:17;116.45;;;105.30;;
17414;SDS011;8825;48.086;16.426;2024-01-10T04:02:46;119.62;;;108.30;;
17414;SDS011;8825;48.086;16.426;2024-01-10T04:05:13;129.90;;;118.70;;
17414;SDS011;8825;48.086;16.426;2024-01-10T04:07:41;137.88;;;126.25;;
17414;SDS011;8825;48.086;16.426;2024-01-10T04:10:09;115.85;;;104.92;;
17414;SDS011;8825;48.086;16.426;2024-01-10T04:12:40;122.65;;;111.37;;
17414;SDS011;8825;48.086;16.426;2024-01-10T04:15:08;134.15;;;122.95;;
17414;SDS011;8825;48.086;16.426;2024-01-10T04:17:35;137.68;;;125.50;;
17414;SDS011;8825;48.086;16.426;2024-01-10T04:20:03;131.90;;;119.97;;
17414;SDS011;8825;48.086;16.426;2024-01-10T04:22:32;125.25;;;113.47;;
17414;SDS011;8825;48.086;16.426;2024-01-10T04:25:00;124.85;;;113.37;;
17414;SDS011;8825;48.086;16.426;2024-01-10T04:27:28;123.42;;;111.92;;
17414;SDS011;8825;48.086;16.426;2024-01-10T04:29:56;128.45;;;116.95;;
17414;SDS011;8825;48.086;16.426;2024-01-10T04:32:23;118.93;;;107.50;;
17414;SDS011;8825;48.086;16.426;2024-01-10T04:34:51;130.72;;;119.05;;
17414;SDS011;8825;48.086;16.426;2024-01-10T04:37:18;135.12;;;123.30;;
17414;SDS011;8825;48.086;16.426;2024-01-10T04:39:46;125.38;;;113.28;;
17414;SDS011;8825;48.086;16.426;2024-01-10T04:42:13;154.93;;;141.95;;
17414;SDS011;8825;48.086;16.426;2024-01-10T04:44:41;142.37;;;130.15;;
17414;SDS011;8825;48.086;16.426;2024-01-10T04:47:09;156.25;;;143.52;;
17414;SDS011;8825;48.086;16.426;2024-01-10T04:49:36;174.10;;;160.50;;
17414;SDS011;8825;48.086;16.426;2024-01-10T04:52:04;133.93;;;122.80;;
17414;SDS011;8825;48.086;16.426;2024-01-10T04:54:31;159.80;;;147.55;;
17414;SDS011;8825;48.086;16.426;2024-01-10T04:56:59;156.65;;;143.85;;
17414;SDS011;8825;48.086;16.426;2024-01-10T04:59:27;147.37;;;135.57;;
17414;SDS011;8825;48.086;16.426;2024-01-10T05:01:54;144.82;;;132.85;;
17414;SDS011;8825;48.086;16.426;2024-01-10T05:04:22;153.23;;;140.73;;
17414;SDS011;8825;48.086;16.426;2024-01-10T05:06:50;142.90;;;131.05;;
17414;SDS011;8825;48.086;16.426;2024-01-10T05:09:17;144.35;;;132.07;;
17414;SDS011;8825;48.086;16.426;2024-01-10T05:11:45;151.53;;;138.97;;
17414;SDS011;8825;48.086;16.426;2024-01-10T05:14:17;143.25;;;130.95;;
17414;SDS011;8825;48.086;16.426;2024-01-10T05:16:48;154.18;;;140.75;;
17414;SDS011;8825;48.086;16.426;2024-01-10T05:19:16;156.60;;;143.90;;
17414;SDS011;8825;48.086;16.426;2024-01-10T05:21:43;159.57;;;147.65;;
17414;SDS011;8825;48.086;16.426;2024-01-10T05:24:11;146.75;;;134.72;;
17414;SDS011;8825;48.086;16.426;2024-01-10T05:26:39;145.45;;;133.37;;
17414;SDS011;8825;48.086;16.426;2024-01-10T05:29:06;151.18;;;138.82;;
17414;SDS011;8825;48.086;16.426;2024-01-10T05:31:34;147.80;;;135.50;;
17414;SDS011;8825;48.086;16.426;2024-01-10T05:34:01;179.03;;;165.18;;
17414;SDS011;8825;48.086;16.426;2024-01-10T05:36:30;220.17;;;203.70;;
17414;SDS011;8825;48.086;16.426;2024-01-10T05:38:59;145.28;;;132.37;;
17414;SDS011;8825;48.086;16.426;2024-01-10T05:41:28;157.60;;;144.77;;
17414;SDS011;8825;48.086;16.426;2024-01-10T05:43:55;150.42;;;137.65;;
17414;SDS011;8825;48.086;16.426;2024-01-10T05:46:22;221.30;;;205.62;;
17414;SDS011;8825;48.086;16.426;2024-01-10T05:48:50;201.52;;;186.88;;
17414;SDS011;8825;48.086;16.426;2024-01-10T05:51:17;197.17;;;182.72;;
17414;SDS011;8825;48.086;16.426;2024-01-10T05:53:45;178.05;;;164.22;;
17414;SDS011;8825;48.086;16.426;2024-01-10T05:56:12;174.32;;;160.50;;
17414;SDS011;8825;48.086;16.426;2024-01-10T05:58:40;158.32;;;145.12;;
17414;SDS011;8825;48.086;16.426;2024-01-10T06:01:08;182.47;;;168.25;;
17414;SDS011;8825;48.086;16.426;2024-01-10T06:03:36;223.80;;;207.72;;
17414;SDS011;8825;48.086;16.426;2024-01-10T06:06:04;162.70;;;149.50;;
17414;SDS011;8825;48.086;16.426;2024-01-10T06:08:32;163.20;;;150.35;;
17414;SDS011;8825;48.086;16.426;2024-01-10T06:11:04;167.20;;;153.12;;
17414;SDS011;8825;48.086;16.426;2024-01-10T06:13:33;219.28;;;203.45;;
17414;SDS011;8825;48.086;16.426;2024-01-10T06:16:07;214.32;;;198.32;;
17414;SDS011;8825;48.086;16.426;2024-01-10T06:18:33;219.47;;;203.50;;
17414;SDS011;8825;48.086;16.426;2024-01-10T06:21:00;245.80;;;220.50;;
17414;SDS011;8825;48.086;16.426;2024-01-10T06:23:28;222.65;;;204.40;;
17414;SDS011;8825;48.086;16.426;2024-01-10T06:25:56;217.37;;;200.93;;
17414;SDS011;8825;48.086;16.426;2024-01-10T06:28:23;189.60;;;175.20;;
17414;SDS011;8825;48.086;16.426;2024-01-10T06:30:51;161.85;;;147.98;;
17414;SDS011;8825;48.086;16.426;2024-01-10T06:33:18;175.53;;;160.95;;
17414;SDS011;8825;48.086;16.426;2024-01-10T06:35:46;176.97;;;162.55;;
17414;SDS011;8825;48.086;16.426;2024-01-10T06:38:13;159.67;;;146.10;;
17414;SDS011;8825;48.086;16.426;2024-01-10T06:40:42;162.15;;;148.05;;
17414;SDS011;8825;48.086;16.426;2024-01-10T06:45:57;152.20;;;138.70;;
17414;SDS011;8825;48.086;16.426;2024-01-10T06:48:24;131.75;;;119.60;;
17414;SDS011;8825;48.086;16.426;2024-01-10T06:50:52;162.22;;;147.78;;
17414;SDS011;8825;48.086;16.426;2024-01-10T06:53:19;134.63;;;122.60;;
17414;SDS011;8825;48.086;16.426;2024-01-10T06:55:47;140.35;;;128.00;;
17414;SDS011;8825;48.086;16.426;2024-01-10T06:58:14;176.35;;;162.35;;
17414;SDS011;8825;48.086;16.426;2024-01-10T07:00:42;152.25;;;139.35;;
17414;SDS011;8825;48.086;16.426;2024-01-10T07:03:10;147.80;;;135.15;;
17414;SDS011;8825;48.086;16.426;2024-01-10T07:05:37;133.70;;;122.02;;
17414;SDS011;8825;48.086;16.426;2024-01-10T07:08:05;181.35;;;167.43;;
17414;SDS011;8825;48.086;16.426;2024-01-10T07:10:32;214.90;;;199.32;;
17414;SDS011;8825;48.086;16.426;2024-01-10T07:13:00;162.70;;;149.70;;
17414;SDS011;8825;48.086;16.426;2024-01-10T07:15:29;133.35;;;121.53;;
17414;SDS011;8825;48.086;16.426;2024-01-10T07:17:57;202.78;;;188.40;;
17414;SDS011;8825;48.086;16.426;2024-01-10T07:20:24;176.97;;;163.55;;
17414;SDS011;8825;48.086;16.426;2024-01-10T07:22:52;158.55;;;145.72;;
17414;SDS011;8825;48.086;16.426;2024-01-10T07:25:20;224.00;;;208.07;;
17414;SDS011;8825;48.086;16.426;2024-01-10T07:27:49;196.35;;;182.10;;
17414;SDS011;8825;48.086;16.426;2024-01-10T07:30:23;150.05;;;137.22;;
17414;SDS011;8825;48.086;16.426;2024-01-10T07:32:50;123.33;;;111.60;;
17414;SDS011;8825;48.086;16.426;2024-01-10T07:35:18;131.57;;;119.85;;
17414;SDS011;8825;48.086;16.426;2024-01-10T07:37:46;126.33;;;114.70;;
17414;SDS011;8825;48.086;16.426;2024-01-10T07:43:36;143.40;;;131.15;;
17414;SDS011;8825;48.086;16.426;2024-01-10T07:46:03;120.47;;;108.85;;
17414;SDS011;8825;48.086;16.426;2024-01-10T07:48:32;119.85;;;108.07;;
17414;SDS011;8825;48.086;16.426;2024-01-10T07:50:59;126.30;;;113.72;;
17414;SDS011;8825;48.086;16.426;2024-01-10T07:53:27;124.72;;;112.60;;
17414;SDS011;8825;48.086;16.426;2024-01-10T07:58:38;132.30;;;120.00;;
17414;SDS011;8825;48.086;16.426;2024-01-10T08:01:06;172.70;;;159.18;;
17414;SDS011;8825;48.086;16.426;2024-01-10T08:03:35;185.70;;;171.40;;
17414;SDS011;8825;48.086;16.426;2024-01-10T08:06:03;143.52;;;131.25;;
17414;SDS011;8825;48.086;16.426;2024-01-10T08:08:31;142.55;;;130.30;;
17414;SDS011;8825;48.086;16.426;2024-01-10T08:10:59;125.55;;;113.70;;
17414;SDS011;8825;48.086;16.426;2024-01-10T08:13:26;115.62;;;104.27;;
17414;SDS011;8825;48.086;16.426;2024-01-10T08:15:54;119.33;;;107.10;;
17414;SDS011;8825;48.086;16.426;2024-01-10T08:18:22;115.95;;;104.58;;
17414;SDS011;8825;48.086;16.426;2024-01-10T08:21:03;104.07;;;93.37;;
17414;SDS011;8825;48.086;16.426;2024-01-10T08:23:31;113.85;;;102.92;;
17414;SDS011;8825;48.086;16.426;2024-01-10T08:26:06;114.88;;;102.67;;
17414;SDS011;8825;48.086;16.426;2024-01-10T08:28:34;205.25;;;189.75;;
17414;SDS011;8825;48.086;16.426;2024-01-10T08:34:24;122.05;;;110.57;;
17414;SDS011;8825;48.086;16.426;2024-01-10T08:36:52;120.95;;;109.67;;
17414;SDS011;8825;48.086;16.426;2024-01-10T08:39:20;103.27;;;92.15;;
17414;SDS011;8825;48.086;16.426;2024-01-10T08:41:49;107.70;;;94.70;;
17414;SDS011;8825;48.086;16.426;2024-01-10T08:44:18;99.05;;;86.97;;
17414;SDS011;8825;48.086;16.426;2024-01-10T08:46:45;111.80;;;100.10;;
17414;SDS011;8825;48.086;16.426;2024-01-10T08:49:13;103.95;;;91.78;;
17414;SDS011;8825;48.086;16.426;2024-01-10T08:51:41;102.25;;;81.45;;
17414;SDS011;8825;48.086;16.426;2024-01-10T08:54:09;117.20;;;105.15;;
17414;SDS011;8825;48.086;16.426;2024-01-10T08:56:38;103.05;;;92.02;;
17414;SDS011;8825;48.086;16.426;2024-01-10T08:59:06;106.05;;;95.00;;
17414;SDS011;8825;48.086;16.426;2024-01-10T09:01:33;89.42;;;72.85;;
17414;SDS011;8825;48.086;16.426;2024-01-10T09:04:01;81.50;;;59.27;;
17414;SDS011;8825;48.086;16.426;2024-01-10T09:06:35;83.72;;;64.77;;
17414;SDS011;8825;48.086;16.426;2024-01-10T09:09:00;83.35;;;61.53;;
17414;SDS011;8825;48.086;16.426;2024-01-10T09:11:39;80.32;;;61.95;;
17414;SDS011;8825;48.086;16.426;2024-01-10T09:14:07;76.33;;;61.85;;
17414;SDS011;8825;48.086;16.426;2024-01-10T09:16:34;76.42;;;58.08;;
17414;SDS011;8825;48.086;16.426;2024-01-10T09:19:02;73.35;;;59.60;;
17414;SDS011;8825;48.086;16.426;2024-01-10T09:21:29;95.00;;;86.30;;
17414;SDS011;8825;48.086;16.426;2024-01-10T09:23:57;72.95;;;61.40;;
17414;SDS011;8825;48.086;16.426;2024-01-10T09:26:24;76.25;;;67.82;;
17414;SDS011;8825;48.086;16.426;2024-01-10T09:28:52;70.32;;;60.98;;
17414;SDS011;8825;48.086;16.426;2024-01-10T09:31:19;66.72;;;59.33;;
17414;SDS011;8825;48.086;16.426;2024-01-10T09:33:47;74.92;;;65.30;;
17414;SDS011;8825;48.086;16.426;2024-01-10T09:36:15;71.82;;;62.05;;
17414;SDS011;8825;48.086;16.426;2024-01-10T09:38:42;66.00;;;55.48;;
17414;SDS011;8825;48.086;16.426;2024-01-10T09:41:10;64.85;;;52.85;;
17414;SDS011;8825;48.086;16.426;2024-01-10T09:43:39;66.40;;;52.13;;
17414;SDS011;8825;48.086;16.426;2024-01-10T09:46:06;61.10;;;54.08;;
17414;SDS011;8825;48.086;16.426;2024-01-10T09:48:36;78.00;;;70.60;;
17414;SDS011;8825;48.086;16.426;2024-01-10T09:51:03;74.58;;;67.60;;
17414;SDS011;8825;48.086;16.426;2024-01-10T09:53:31;68.10;;;61.40;;
17414;SDS011;8825;48.086;16.426;2024-01-10T09:56:03;65.40;;;59.23;;
17414;SDS011;8825;48.086;16.426;2024-01-10T09:58:31;56.97;;;51.17;;
17414;SDS011;8825;48.086;16.426;2024-01-10T10:01:00;53.30;;;46.67;;
17414;SDS011;8825;48.086;16.426;2024-01-10T10:03:29;48.50;;;40.83;;
17414;SDS011;8825;48.086;16.426;2024-01-10T10:05:59;53.97;;;45.40;;
17414;SDS011;8825;48.086;16.426;2024-01-10T10:08:26;58.93;;;52.03;;
17414;SDS011;8825;48.086;16.426;2024-01-10T10:10:54;68.43;;;62.57;;
17414;SDS011;8825;48.086;16.426;2024-01-10T10:13:25;60.80;;;55.23;;
17414;SDS011;8825;48.086;16.426;2024-01-10T10:15:58;64.10;;;58.50;;
17414;SDS011;8825;48.086;16.426;2024-01-10T10:18:27;59.67;;;54.07;;
17414;SDS011;8825;48.086;16.426;2024-01-10T10:21:08;59.87;;;54.40;;
17414;SDS011;8825;48.086;16.426;2024-01-10T10:23:44;60.80;;;54.83;;
17414;SDS011;8825;48.086;16.426;2024-01-10T10:26:25;51.00;;;45.87;;
17414;SDS011;8825;48.086;16.426;2024-01-10T10:28:55;46.40;;;41.43;;
17414;SDS011;8825;48.086;16.426;2024-01-10T10:31:23;42.93;;;38.50;;
17414;SDS011;8825;48.086;16.426;2024-01-10T10:33:51;43.70;;;39.27;;
17414;SDS011;8825;48.086;16.426;2024-01-10T10:36:19;40.30;;;35.73;;
17414;SDS011;8825;48.086;16.426;2024-01-10T10:38:47;41.30;;;36.97;;
17414;SDS011;8825;48.086;16.426;2024-01-10T10:41:15;45.00;;;40.30;;
17414;SDS011;8825;48.086;16.426;2024-01-10T10:43:42;44.47;;;39.83;;
17414;SDS011;8825;48.086;16.426;2024-01-10T10:46:11;39.60;;;35.77;;
17414;SDS011;8825;48.086;16.426;2024-01-10T10:48:38;46.17;;;41.83;;
17414;SDS011;8825;48.086;16.426;2024-01-10T10:51:10;44.43;;;39.73;;
17414;SDS011;8825;48.086;16.426;2024-01-10T10:53:39;43.40;;;39.23;;
17414;SDS011;8825;48.086;16.426;2024-01-10T10:56:11;43.80;;;39.90;;
17414;SDS011;8825;48.086;16.426;2024-01-10T10:58:39;43.17;;;39.50;;
17414;SDS011;8825;48.086;16.426;2024-01-10T11:01:11;45.87;;;42.17;;
17414;SDS011;8825;48.086;16.426;2024-01-10T11:03:40;46.10;;;42.67;;
17414;SDS011;8825;48.086;16.426;2024-01-10T11:06:12;38.27;;;35.27;;
17414;SDS011;8825;48.086;16.426;2024-01-10T11:08:42;37.53;;;34.40;;
17414;SDS011;8825;48.086;16.426;2024-01-10T11:11:17;41.57;;;38.17;;
17414;SDS011;8825;48.086;16.426;2024-01-10T11:13:46;45.27;;;41.80;;
17414;SDS011;8825;48.086;16.426;2024-01-10T11:19:06;59.60;;;55.57;;
17414;SDS011;8825;48.086;16.426;2024-01-10T11:24:28;42.10;;;38.67;;
17414;SDS011;8825;48.086;16.426;2024-01-10T11:27:12;34.90;;;31.93;;
17414;SDS011;8825;48.086;16.426;2024-01-10T11:29:41;32.20;;;29.10;;
17414;SDS011;8825;48.086;16.426;2024-01-10T11:32:17;37.70;;;34.10;;
17414;SDS011;8825;48.086;16.426;2024-01-10T11:34:56;39.13;;;35.93;;
17414;SDS011;8825;48.086;16.426;2024-01-10T11:37:28;53.70;;;49.73;;
17414;SDS011;8825;48.086;16.426;2024-01-10T11:39:57;72.23;;;67.47;;
17414;SDS011;8825;48.086;16.426;2024-01-10T11:42:40;49.93;;;46.00;;
17414;SDS011;8825;48.086;16.426;2024-01-10T11:45:09;90.63;;;85.10;;
17414;SDS011;8825;48.086;16.426;2024-01-10T11:47:39;51.33;;;47.53;;
17414;SDS011;8825;48.086;16.426;2024-01-10T11:50:08;37.13;;;33.80;;
17414;SDS011;8825;48.086;16.426;2024-01-10T11:52:37;34.53;;;31.07;;
17414;SDS011;8825;48.086;16.426;2024-01-10T11:55:05;33.37;;;29.90;;
17414;SDS011;8825;48.086;16.426;2024-01-10T11:57:34;35.40;;;31.97;;
17414;SDS011;8825;48.086;16.426;2024-01-10T12:00:01;38.33;;;32.13;;
17414;SDS011;8825;48.086;16.426;2024-01-10T12:02:31;36.93;;;33.43;;
17414;SDS011;8825;48.086;16.426;2024-01-10T12:04:59;40.20;;;36.30;;
17414;SDS011;8825;48.086;16.426;2024-01-10T12:07:27;42.10;;;38.37;;
17414;SDS011;8825;48.086;16.426;2024-01-10T12:09:54;38.73;;;34.93;;
17414;SDS011;8825;48.086;16.426;2024-01-10T12:12:22;47.80;;;43.27;;
17414;SDS011;8825;48.086;16.426;2024-01-10T12:14:50;41.10;;;37.10;;
17414;SDS011;8825;48.086;16.426;2024-01-10T12:17:18;56.47;;;52.07;;
17414;SDS011;8825;48.086;16.426;2024-01-10T12:19:45;68.53;;;63.30;;
17414;SDS011;8825;48.086;16.426;2024-01-10T12:22:14;51.50;;;47.50;;
17414;SDS011;8825;48.086;16.426;2024-01-10T12:24:44;53.37;;;48.87;;
17414;SDS011;8825;48.086;16.426;2024-01-10T12:27:18;54.90;;;50.12;;
17414;SDS011;8825;48.086;16.426;2024-01-10T12:29:48;51.05;;;46.70;;
17414;SDS011;8825;48.086;16.426;2024-01-10T12:32:19;48.83;;;45.08;;
17414;SDS011;8825;48.086;16.426;2024-01-10T12:34:48;75.52;;;70.12;;
17414;SDS011;8825;48.086;16.426;2024-01-10T12:37:17;61.70;;;56.95;;
17414;SDS011;8825;48.086;16.426;2024-01-10T12:39:46;74.15;;;69.00;;
17414;SDS011;8825;48.086;16.426;2024-01-10T12:42:15;82.08;;;76.60;;
17414;SDS011;8825;48.086;16.426;2024-01-10T12:44:47;67.95;;;63.13;;
17414;SDS011;8825;48.086;16.426;2024-01-10T12:47:20;66.92;;;62.20;;
17414;SDS011;8825;48.086;16.426;2024-01-10T12:49:50;63.00;;;57.55;;
17414;SDS011;8825;48.086;16.426;2024-01-10T12:52:19;76.85;;;71.40;;
17414;SDS011;8825;48.086;16.426;2024-01-10T12:54:47;56.83;;;51.77;;
17414;SDS011;8825;48.086;16.426;2024-01-10T12:57:15;57.98;;;53.02;;
17414;SDS011;8825;48.086;16.426;2024-01-10T12:59:42;69.35;;;63.75;;
17414;SDS011;8825;48.086;16.426;2024-01-10T13:02:10;68.57;;;63.20;;
17414;SDS011;8825;48.086;16.426;2024-01-10T13:04:38;68.80;;;63.65;;
17414;SDS011;8825;48.086;16.426;2024-01-10T13:07:06;67.22;;;61.85;;
17414;SDS011;8825;48.086;16.426;2024-01-10T13:09:33;51.58;;;46.92;;
17414;SDS011;8825;48.086;16.426;2024-01-10T13:12:01;53.20;;;48.28;;
17414;SDS011;8825;48.086;16.426;2024-01-10T13:14:29;51.85;;;47.17;;
17414;SDS011;8825;48.086;16.426;2024-01-10T13:16:57;56.73;;;51.95;;
17414;SDS011;8825;48.086;16.426;2024-01-10T13:19:24;63.42;;;58.35;;
17414;SDS011;8825;48.086;16.426;2024-01-10T13:21:52;54.25;;;49.45;;
17414;SDS011;8825;48.086;16.426;2024-01-10T13:24:20;47.03;;;42.73;;
17414;SDS011;8825;48.086;16.426;2024-01-10T13:26:47;47.50;;;43.20;;
17414;SDS011;8825;48.086;16.426;2024-01-10T13:29:15;49.67;;;45.28;;
17414;SDS011;8825;48.086;16.426;2024-01-10T13:31:43;45.88;;;41.95;;
17414;SDS011;8825;48.086;16.426;2024-01-10T13:34:10;68.15;;;63.40;;
17414;SDS011;8825;48.086;16.426;2024-01-10T13:36:38;61.50;;;56.28;;
17414;SDS011;8825;48.086;16.426;2024-01-10T13:39:05;57.15;;;52.65;;
17414;SDS011;8825;48.086;16.426;2024-01-10T13:41:33;53.48;;;49.38;;
17414;SDS011;8825;48.086;16.426;2024-01-10T13:44:00;42.60;;;38.70;;
17414;SDS011;8825;48.086;16.426;2024-01-10T13:46:30;43.20;;;39.23;;
17414;SDS011;8825;48.086;16.426;2024-01-10T13:48:57;45.65;;;41.77;;
17414;SDS011;8825;48.086;16.426;2024-01-10T13:51:25;54.23;;;49.98;;
17414;SDS011;8825;48.086;16.426;2024-01-10T13:53:52;56.92;;;52.65;;
17414;SDS011;8825;48.086;16.426;2024-01-10T13:56:20;71.00;;;66.28;;
17414;SDS011;8825;48.086;16.426;2024-01-10T13:58:48;63.15;;;58.68;;
17414;SDS011;8825;48.086;16.426;2024-01-10T14:01:16;59.65;;;55.33;;
17414;SDS011;8825;48.086;16.426;2024-01-10T14:03:43;49.48;;;45.43;;
17414;SDS011;8825;48.086;16.426;2024-01-10T14:06:11;48.95;;;45.05;;
17414;SDS011;8825;48.086;16.426;2024-01-10T14:08:38;64.77;;;60.03;;
17414;SDS011;8825;48.086;16.426;2024-01-10T14:11:07;59.35;;;55.00;;
17414;SDS011;8825;48.086;16.426;2024-01-10T14:13:34;61.68;;;57.08;;
17414;SDS011;8825;48.086;16.426;2024-01-10T14:16:02;57.55;;;53.23;;
17414;SDS011;8825;48.086;16.426;2024-01-10T14:18:30;47.78;;;43.87;;
17414;SDS011;8825;48.086;16.426;2024-01-10T14:20:57;43.85;;;39.78;;
17414;SDS011;8825;48.086;16.426;2024-01-10T14:23:25;52.62;;;48.58;;
17414;SDS011;8825;48.086;16.426;2024-01-10T14:25:52;47.45;;;43.40;;
17414;SDS011;8825;48.086;16.426;2024-01-10T14:28:20;49.70;;;45.75;;
17414;SDS011;8825;48.086;16.426;2024-01-10T14:30:48;44.05;;;40.20;;
17414;SDS011;8825;48.086;16.426;2024-01-10T14:33:15;37.48;;;33.90;;
17414;SDS011;8825;48.086;16.426;2024-01-10T14:35:43;38.20;;;34.15;;
17414;SDS011;8825;48.086;16.426;2024-01-10T14:38:10;41.30;;;37.60;;